sensor_id;sensor_type;location;lat;lon;timestamp;pressure;altitude;pressure_sealevel;temperature;humidity
71857;BME280;63344;46.980;28.882;2023-05-23T00:01:37;100508.88;;;16.07;77.91
71857;BME280;63344;46.980;28.882;2023-05-23T00:04:06;100501.91;;;16.04;78.14
71857;BME280;63344;46.980;28.882;2023-05-23T00:06:35;100502.00;;;16.03;77.98
71857;BME280;63344;46.980;28.882;2023-05-23T00:09:08;100504.91;;;16.00;78.40
71857;BME280;63344;46.980;28.882;2023-05-23T00:11:39;100499.91;;;15.93;78.65
71857;BME280;63344;46.980;28.882;2023-05-23T00:14:12;100497.53;;;15.89;78.90
71857;BME280;63344;46.980;28.882;2023-05-23T00:16:41;100503.09;;;15.86;78.83
71857;BME280;63344;46.980;28.882;2023-05-23T00:19:10;100501.44;;;15.83;78.68
71857;BME280;63344;46.980;28.882;2023-05-23T00:21:44;100505.19;;;15.81;79.03
71857;BME280;63344;46.980;28.882;2023-05-23T00:24:14;100504.31;;;15.80;78.60
71857;BME280;63344;46.980;28.882;2023-05-23T00:26:45;100497.34;;;15.78;78.73
71857;BME280;63344;46.980;28.882;2023-05-23T00:29:14;100495.63;;;15.77;78.72
71857;BME280;63344;46.980;28.882;2023-05-23T00:31:45;100499.44;;;15.72;78.79
71857;BME280;63344;46.980;28.882;2023-05-23T00:34:16;100496.91;;;15.69;78.92
71857;BME280;63344;46.980;28.882;2023-05-23T00:36:44;100495.38;;;15.65;78.95
71857;BME280;63344;46.980;28.882;2023-05-23T00:39:14;100483.81;;;15.65;79.01
71857;BME280;63344;46.980;28.882;2023-05-23T00:41:48;100483.91;;;15.63;78.67
71857;BME280;63344;46.980;28.882;2023-05-23T00:44:19;100488.41;;;15.63;78.80
71857;BME280;63344;46.980;28.882;2023-05-23T00:46:54;100497.28;;;15.63;78.73
71857;BME280;63344;46.980;28.882;2023-05-23T00:49:22;100484.03;;;15.62;78.90
71857;BME280;63344;46.980;28.882;2023-05-23T00:51:55;100482.13;;;15.64;78.91
71857;BME280;63344;46.980;28.882;2023-05-23T00:54:24;100491.00;;;15.64;78.71
71857;BME280;63344;46.980;28.882;2023-05-23T00:56:57;100492.81;;;15.64;78.84
71857;BME280;63344;46.980;28.882;2023-05-23T00:59:25;100484.88;;;15.62;78.75
71857;BME280;63344;46.980;28.882;2023-05-23T01:01:55;100486.69;;;15.62;78.38
71857;BME280;63344;46.980;28.882;2023-05-23T01:04:23;100485.94;;;15.60;78.28
71857;BME280;63344;46.980;28.882;2023-05-23T01:06:54;100482.50;;;15.58;78.57
71857;BME280;63344;46.980;28.882;2023-05-23T01:09:22;100480.75;;;15.57;78.43
71857;BME280;63344;46.980;28.882;2023-05-23T01:15:10;100480.00;;;15.54;77.99
71857;BME280;63344;46.980;28.882;2023-05-23T01:18:01;100478.25;;;15.53;78.38
71857;BME280;63344;46.980;28.882;2023-05-23T01:20:40;100485.44;;;15.53;77.94
71857;BME280;63344;46.980;28.882;2023-05-23T01:29:13;100494.06;;;15.58;77.56
71857;BME280;63344;46.980;28.882;2023-05-23T01:31:45;100486.19;;;15.55;77.59
71857;BME280;63344;46.980;28.882;2023-05-23T01:34:15;100481.91;;;15.52;77.17
71857;BME280;63344;46.980;28.882;2023-05-23T01:36:48;100493.38;;;15.54;76.95
71857;BME280;63344;46.980;28.882;2023-05-23T01:39:16;100489.94;;;15.52;76.75
71857;BME280;63344;46.980;28.882;2023-05-23T01:41:45;100487.34;;;15.51;77.11
71857;BME280;63344;46.980;28.882;2023-05-23T01:44:13;100494.63;;;15.49;76.86
71857;BME280;63344;46.980;28.882;2023-05-23T01:46:40;100497.38;;;15.47;76.92
71857;BME280;63344;46.980;28.882;2023-05-23T01:49:10;100509.13;;;15.45;77.11
71857;BME280;63344;46.980;28.882;2023-05-23T01:51:38;100508.47;;;15.41;77.68
71857;BME280;63344;46.980;28.882;2023-05-23T01:54:06;100508.84;;;15.35;77.81
71857;BME280;63344;46.980;28.882;2023-05-23T01:56:33;100509.91;;;15.32;77.94
71857;BME280;63344;46.980;28.882;2023-05-23T01:59:02;100511.81;;;15.30;77.52
71857;BME280;63344;46.980;28.882;2023-05-23T02:01:29;100504.81;;;15.28;77.67
71857;BME280;63344;46.980;28.882;2023-05-23T02:03:59;100504.91;;;15.26;77.66
71857;BME280;63344;46.980;28.882;2023-05-23T02:06:26;100507.66;;;15.25;77.80
71857;BME280;63344;46.980;28.882;2023-05-23T02:08:53;100499.72;;;15.23;77.75
71857;BME280;63344;46.980;28.882;2023-05-23T02:11:20;100496.28;;;15.21;77.63
71857;BME280;63344;46.980;28.882;2023-05-23T02:13:48;100492.84;;;15.19;77.83
71857;BME280;63344;46.980;28.882;2023-05-23T02:16:17;100491.22;;;15.17;77.59
71857;BME280;63344;46.980;28.882;2023-05-23T02:18:45;100488.56;;;15.17;77.63
71857;BME280;63344;46.980;28.882;2023-05-23T02:21:12;100487.78;;;15.14;77.58
71857;BME280;63344;46.980;28.882;2023-05-23T02:23:41;100494.06;;;15.13;77.48
71857;BME280;63344;46.980;28.882;2023-05-23T02:26:14;100491.50;;;15.12;77.89
71857;BME280;63344;46.980;28.882;2023-05-23T02:28:42;100492.38;;;15.12;77.55
71857;BME280;63344;46.980;28.882;2023-05-23T02:31:10;100490.63;;;15.11;77.57
71857;BME280;63344;46.980;28.882;2023-05-23T02:33:38;100496.09;;;15.10;77.46
71857;BME280;63344;46.980;28.882;2023-05-23T02:36:06;100497.88;;;15.09;77.52
71857;BME280;63344;46.980;28.882;2023-05-23T02:38:34;100496.94;;;15.10;77.50
71857;BME280;63344;46.980;28.882;2023-05-23T02:41:01;100493.22;;;15.13;77.27
71857;BME280;63344;46.980;28.882;2023-05-23T02:43:28;100500.31;;;15.14;77.15
71857;BME280;63344;46.980;28.882;2023-05-23T02:45:56;100499.84;;;15.22;77.45
71857;BME280;63344;46.980;28.882;2023-05-23T02:48:24;100493.91;;;15.31;77.70
71857;BME280;63344;46.980;28.882;2023-05-23T02:50:51;100502.34;;;15.39;77.50
71857;BME280;63344;46.980;28.882;2023-05-23T02:53:20;100488.19;;;15.51;76.99
71857;BME280;63344;46.980;28.882;2023-05-23T02:55:49;100494.91;;;15.59;76.86
71857;BME280;63344;46.980;28.882;2023-05-23T02:58:17;100503.53;;;15.64;76.26
71857;BME280;63344;46.980;28.882;2023-05-23T03:00:46;100503.53;;;15.64;76.21
71857;BME280;63344;46.980;28.882;2023-05-23T03:03:16;100507.91;;;15.65;75.82
71857;BME280;63344;46.980;28.882;2023-05-23T03:05:44;100509.75;;;15.64;76.02
71857;BME280;63344;46.980;28.882;2023-05-23T03:08:12;100512.41;;;15.64;75.45
71857;BME280;63344;46.980;28.882;2023-05-23T03:10:39;100507.16;;;15.63;75.55
71857;BME280;63344;46.980;28.882;2023-05-23T03:13:07;100504.56;;;15.61;75.12
71857;BME280;63344;46.980;28.882;2023-05-23T03:15:34;100512.81;;;15.58;75.59
71857;BME280;63344;46.980;28.882;2023-05-23T03:18:01;100507.44;;;15.58;75.36
71857;BME280;63344;46.980;28.882;2023-05-23T03:20:28;100501.78;;;15.63;75.76
71857;BME280;63344;46.980;28.882;2023-05-23T03:22:56;100522.66;;;15.72;75.36
71857;BME280;63344;46.980;28.882;2023-05-23T03:25:23;100512.84;;;15.72;75.29
71857;BME280;63344;46.980;28.882;2023-05-23T03:27:52;100514.44;;;15.75;75.18
71857;BME280;63344;46.980;28.882;2023-05-23T03:30:20;100513.97;;;15.83;75.22
71857;BME280;63344;46.980;28.882;2023-05-23T03:32:48;100522.59;;;15.88;74.86
71857;BME280;63344;46.980;28.882;2023-05-23T03:35:16;100521.31;;;15.93;75.14
71857;BME280;63344;46.980;28.882;2023-05-23T03:37:43;100521.72;;;16.02;74.66
71857;BME280;63344;46.980;28.882;2023-05-23T03:40:16;100518.66;;;16.08;74.10
71857;BME280;63344;46.980;28.882;2023-05-23T03:42:47;100510.13;;;16.16;73.80
71857;BME280;63344;46.980;28.882;2023-05-23T03:45:15;100519.19;;;16.27;73.63
71857;BME280;63344;46.980;28.882;2023-05-23T03:47:44;100522.72;;;16.42;73.63
71857;BME280;63344;46.980;28.882;2023-05-23T03:50:12;100527.94;;;16.58;73.25
71857;BME280;63344;46.980;28.882;2023-05-23T03:52:40;100520.28;;;16.79;72.67
71857;BME280;63344;46.980;28.882;2023-05-23T03:55:07;100525.50;;;16.95;72.04
71857;BME280;63344;46.980;28.882;2023-05-23T03:57:38;100522.38;;;17.16;71.07
71857;BME280;63344;46.980;28.882;2023-05-23T04:00:23;100525.63;;;17.34;70.32
71857;BME280;63344;46.980;28.882;2023-05-23T04:02:51;100516.38;;;17.50;69.83
71857;BME280;63344;46.980;28.882;2023-05-23T04:05:19;100514.97;;;17.70;69.73
71857;BME280;63344;46.980;28.882;2023-05-23T04:07:48;100519.41;;;17.84;68.30
71857;BME280;63344;46.980;28.882;2023-05-23T04:10:15;100523.72;;;18.00;67.66
71857;BME280;63344;46.980;28.882;2023-05-23T04:12:57;100516.47;;;18.13;67.00
71857;BME280;63344;46.980;28.882;2023-05-23T04:15:25;100524.66;;;18.11;65.94
71857;BME280;63344;46.980;28.882;2023-05-23T04:17:57;100519.84;;;18.04;65.85
71857;BME280;63344;46.980;28.882;2023-05-23T04:20:25;100520.28;;;17.98;65.50
71857;BME280;63344;46.980;28.882;2023-05-23T04:22:53;100514.44;;;17.91;65.62
71857;BME280;63344;46.980;28.882;2023-05-23T04:25:20;100519.41;;;17.84;65.54
71857;BME280;63344;46.980;28.882;2023-05-23T04:27:48;100512.41;;;17.82;65.74
71857;BME280;63344;46.980;28.882;2023-05-23T04:30:15;100508.66;;;17.84;66.22
71857;BME280;63344;46.980;28.882;2023-05-23T04:32:44;100506.41;;;17.91;66.19
71857;BME280;63344;46.980;28.882;2023-05-23T04:35:12;100509.19;;;18.02;66.25
71857;BME280;63344;46.980;28.882;2023-05-23T04:37:41;100503.91;;;18.14;65.76
71857;BME280;63344;46.980;28.882;2023-05-23T04:40:08;100512.25;;;18.22;65.44
71857;BME280;63344;46.980;28.882;2023-05-23T04:42:41;100502.91;;;18.27;65.72
71857;BME280;63344;46.980;28.882;2023-05-23T04:45:14;100513.31;;;18.32;65.21
71857;BME280;63344;46.980;28.882;2023-05-23T04:47:42;100507.28;;;18.41;64.93
71857;BME280;63344;46.980;28.882;2023-05-23T04:50:39;100514.13;;;18.45;64.20
71857;BME280;63344;46.980;28.882;2023-05-23T04:53:21;100515.50;;;18.51;64.17
71857;BME280;63344;46.980;28.882;2023-05-23T04:55:54;100520.44;;;18.57;63.98
71857;BME280;63344;46.980;28.882;2023-05-23T04:58:49;100512.06;;;18.73;64.00
71857;BME280;63344;46.980;28.882;2023-05-23T05:01:41;100508.69;;;19.06;63.93
71857;BME280;63344;46.980;28.882;2023-05-23T05:04:11;100507.88;;;19.17;63.02
71857;BME280;63344;46.980;28.882;2023-05-23T05:06:42;100504.09;;;19.31;62.60
71857;BME280;63344;46.980;28.882;2023-05-23T05:09:31;100502.44;;;19.53;62.10
71857;BME280;63344;46.980;28.882;2023-05-23T05:11:59;100500.25;;;19.69;61.85
71857;BME280;63344;46.980;28.882;2023-05-23T05:14:27;100494.41;;;19.86;61.68
71857;BME280;63344;46.980;28.882;2023-05-23T05:17:09;100505.66;;;20.03;61.01
71857;BME280;63344;46.980;28.882;2023-05-23T05:19:45;100507.41;;;20.15;60.32
71857;BME280;63344;46.980;28.882;2023-05-23T05:22:55;100504.44;;;20.18;59.84
71857;BME280;63344;46.980;28.882;2023-05-23T05:28:31;100504.81;;;20.14;58.80
71857;BME280;63344;46.980;28.882;2023-05-23T05:31:28;100510.34;;;20.23;58.26
71857;BME280;63344;46.980;28.882;2023-05-23T05:33:59;100511.91;;;20.37;58.13
71857;BME280;63344;46.980;28.882;2023-05-23T05:36:27;100506.13;;;20.53;57.86
71857;BME280;63344;46.980;28.882;2023-05-23T05:38:58;100503.03;;;20.69;56.65
71857;BME280;63344;46.980;28.882;2023-05-23T05:41:27;100504.59;;;20.72;56.44
71857;BME280;63344;46.980;28.882;2023-05-23T05:43:57;100503.88;;;20.69;56.42
71857;BME280;63344;46.980;28.882;2023-05-23T05:46:26;100501.13;;;20.81;56.14
71857;BME280;63344;46.980;28.882;2023-05-23T05:49:13;100503.78;;;20.92;55.68
71857;BME280;63344;46.980;28.882;2023-05-23T05:51:57;100500.53;;;21.09;56.45
71857;BME280;63344;46.980;28.882;2023-05-23T05:54:25;100502.84;;;21.35;55.85
71857;BME280;63344;46.980;28.882;2023-05-23T05:56:57;100502.25;;;21.53;55.02
71857;BME280;63344;46.980;28.882;2023-05-23T05:59:34;100494.38;;;21.71;54.82
71857;BME280;63344;46.980;28.882;2023-05-23T06:02:07;100494.59;;;21.79;53.62
71857;BME280;63344;46.980;28.882;2023-05-23T06:04:36;100497.16;;;21.90;53.39
71857;BME280;63344;46.980;28.882;2023-05-23T06:07:04;100498.44;;;21.86;52.65
71857;BME280;63344;46.980;28.882;2023-05-23T06:09:34;100510.09;;;21.77;51.83
71857;BME280;63344;46.980;28.882;2023-05-23T06:12:02;100499.47;;;21.64;52.46
71857;BME280;63344;46.980;28.882;2023-05-23T06:14:32;100504.69;;;21.56;52.79
71857;BME280;63344;46.980;28.882;2023-05-23T06:17:04;100510.69;;;21.59;52.17
71857;BME280;63344;46.980;28.882;2023-05-23T06:19:31;100512.69;;;21.57;52.43
71857;BME280;63344;46.980;28.882;2023-05-23T06:21:59;100515.56;;;21.65;52.06
71857;BME280;63344;46.980;28.882;2023-05-23T06:24:29;100513.72;;;21.66;51.58
71857;BME280;63344;46.980;28.882;2023-05-23T06:27:01;100505.41;;;21.79;51.78
71857;BME280;63344;46.980;28.882;2023-05-23T06:29:33;100512.84;;;21.96;51.52
71857;BME280;63344;46.980;28.882;2023-05-23T06:32:03;100509.75;;;22.01;51.55
71857;BME280;63344;46.980;28.882;2023-05-23T06:34:30;100505.06;;;22.03;51.15
71857;BME280;63344;46.980;28.882;2023-05-23T06:37:20;100508.13;;;21.88;50.30
71857;BME280;63344;46.980;28.882;2023-05-23T06:39:47;100512.91;;;21.75;50.93
71857;BME280;63344;46.980;28.882;2023-05-23T06:42:15;100510.09;;;21.56;50.67
71857;BME280;63344;46.980;28.882;2023-05-23T06:44:46;100501.09;;;21.34;51.44
71857;BME280;63344;46.980;28.882;2023-05-23T06:47:17;100507.31;;;21.25;52.22
71857;BME280;63344;46.980;28.882;2023-05-23T06:49:44;100503.22;;;21.31;52.47
71857;BME280;63344;46.980;28.882;2023-05-23T06:52:11;100501.69;;;21.49;52.48
71857;BME280;63344;46.980;28.882;2023-05-23T06:54:39;100500.72;;;21.60;51.95
71857;BME280;63344;46.980;28.882;2023-05-23T06:57:36;100498.28;;;21.57;51.17
71857;BME280;63344;46.980;28.882;2023-05-23T07:00:07;100494.78;;;21.66;51.58
71857;BME280;63344;46.980;28.882;2023-05-23T07:02:40;100498.19;;;21.89;51.14
71857;BME280;63344;46.980;28.882;2023-05-23T07:10:56;100484.97;;;21.96;50.57
71857;BME280;63344;46.980;28.882;2023-05-23T07:13:28;100478.84;;;21.94;49.99
71857;BME280;63344;46.980;28.882;2023-05-23T07:15:59;100482.94;;;21.88;50.08
71857;BME280;63344;46.980;28.882;2023-05-23T07:18:33;100492.59;;;21.81;50.32
71857;BME280;63344;46.980;28.882;2023-05-23T07:21:04;100489.00;;;21.80;50.73
71857;BME280;63344;46.980;28.882;2023-05-23T07:23:33;100480.00;;;22.01;50.62
71857;BME280;63344;46.980;28.882;2023-05-23T07:26:01;100486.66;;;22.27;50.76
71857;BME280;63344;46.980;28.882;2023-05-23T07:28:32;100484.13;;;22.45;50.26
71857;BME280;63344;46.980;28.882;2023-05-23T07:31:04;100482.41;;;22.44;49.26
71857;BME280;63344;46.980;28.882;2023-05-23T07:33:34;100489.81;;;22.42;49.73
71857;BME280;63344;46.980;28.882;2023-05-23T07:36:02;100481.13;;;22.48;49.47
71857;BME280;63344;46.980;28.882;2023-05-23T07:38:30;100479.16;;;22.60;49.75
71857;BME280;63344;46.980;28.882;2023-05-23T07:40:57;100475.75;;;22.78;49.38
71857;BME280;63344;46.980;28.882;2023-05-23T07:43:40;100480.31;;;22.77;49.14
71857;BME280;63344;46.980;28.882;2023-05-23T07:46:09;100480.59;;;22.74;49.37
71857;BME280;63344;46.980;28.882;2023-05-23T07:48:56;100475.88;;;22.86;49.71
71857;BME280;63344;46.980;28.882;2023-05-23T07:51:26;100473.63;;;22.91;49.69
71857;BME280;63344;46.980;28.882;2023-05-23T07:54:02;100472.06;;;22.79;49.67
71857;BME280;63344;46.980;28.882;2023-05-23T07:56:35;100477.03;;;22.74;49.99
71857;BME280;63344;46.980;28.882;2023-05-23T07:59:08;100482.00;;;22.78;50.30
71857;BME280;63344;46.980;28.882;2023-05-23T08:01:42;100471.50;;;22.95;49.10
71857;BME280;63344;46.980;28.882;2023-05-23T08:04:17;100468.47;;;22.98;49.06
71857;BME280;63344;46.980;28.882;2023-05-23T08:06:57;100475.19;;;23.13;48.81
71857;BME280;63344;46.980;28.882;2023-05-23T08:09:38;100469.31;;;23.27;49.12
71857;BME280;63344;46.980;28.882;2023-05-23T08:12:13;100462.88;;;23.38;47.80
71857;BME280;63344;46.980;28.882;2023-05-23T08:14:50;100469.75;;;23.33;46.97
71857;BME280;63344;46.980;28.882;2023-05-23T08:17:23;100464.44;;;23.41;47.25
71857;BME280;63344;46.980;28.882;2023-05-23T08:20:11;100459.28;;;23.48;46.75
71857;BME280;63344;46.980;28.882;2023-05-23T08:23:07;100457.03;;;23.80;46.16
71857;BME280;63344;46.980;28.882;2023-05-23T08:25:38;100453.72;;;24.42;45.65
71857;BME280;63344;46.980;28.882;2023-05-23T08:28:13;100438.69;;;24.83;43.27
71857;BME280;63344;46.980;28.882;2023-05-23T08:30:53;100446.66;;;24.49;43.56
71857;BME280;63344;46.980;28.882;2023-05-23T08:33:30;100442.66;;;24.53;44.33
71857;BME280;63344;46.980;28.882;2023-05-23T08:36:00;100439.44;;;24.94;43.61
71857;BME280;63344;46.980;28.882;2023-05-23T08:38:36;100435.78;;;25.47;42.74
71857;BME280;63344;46.980;28.882;2023-05-23T08:41:15;100434.44;;;25.51;42.54
71857;BME280;63344;46.980;28.882;2023-05-23T08:43:50;100432.94;;;25.57;42.10
71857;BME280;63344;46.980;28.882;2023-05-23T08:46:21;100437.50;;;25.82;41.92
71857;BME280;63344;46.980;28.882;2023-05-23T08:48:52;100428.50;;;26.41;40.18
71857;BME280;63344;46.980;28.882;2023-05-23T08:51:22;100436.41;;;26.60;39.94
71857;BME280;63344;46.980;28.882;2023-05-23T08:53:51;100424.84;;;26.91;39.81
71857;BME280;63344;46.980;28.882;2023-05-23T08:56:25;100427.88;;;27.37;39.02
71857;BME280;63344;46.980;28.882;2023-05-23T08:59:14;100422.25;;;27.95;38.70
71857;BME280;63344;46.980;28.882;2023-05-23T09:01:44;100415.47;;;28.91;37.06
71857;BME280;63344;46.980;28.882;2023-05-23T09:04:15;100409.81;;;29.16;35.25
71857;BME280;63344;46.980;28.882;2023-05-23T09:06:57;100399.63;;;28.64;35.84
71857;BME280;63344;46.980;28.882;2023-05-23T09:09:29;100405.28;;;28.08;37.00
71857;BME280;63344;46.980;28.882;2023-05-23T09:12:00;100403.69;;;27.82;37.19
71857;BME280;63344;46.980;28.882;2023-05-23T09:14:31;100398.13;;;28.30;35.98
71857;BME280;63344;46.980;28.882;2023-05-23T09:17:00;100401.16;;;27.25;36.55
71857;BME280;63344;46.980;28.882;2023-05-23T09:19:31;100395.53;;;26.69;37.79
71857;BME280;63344;46.980;28.882;2023-05-23T09:22:01;100397.88;;;26.55;37.42
71857;BME280;63344;46.980;28.882;2023-05-23T09:24:34;100401.03;;;25.67;39.27
71857;BME280;63344;46.980;28.882;2023-05-23T09:27:04;100394.94;;;25.13;40.14
71857;BME280;63344;46.980;28.882;2023-05-23T09:29:41;100400.75;;;24.74;41.81
71857;BME280;63344;46.980;28.882;2023-05-23T09:32:14;100399.25;;;24.43;42.64
71857;BME280;63344;46.980;28.882;2023-05-23T09:37:18;100402.66;;;23.82;44.03
71857;BME280;63344;46.980;28.882;2023-05-23T09:39:54;100402.13;;;23.69;45.03
71857;BME280;63344;46.980;28.882;2023-05-23T09:42:23;100389.72;;;23.66;44.70
71857;BME280;63344;46.980;28.882;2023-05-23T09:48:48;100383.44;;;23.65;43.31
71857;BME280;63344;46.980;28.882;2023-05-23T09:51:18;100393.50;;;25.00;40.99
71857;BME280;63344;46.980;28.882;2023-05-23T09:53:53;100386.97;;;26.39;38.60
71857;BME280;63344;46.980;28.882;2023-05-23T09:56:24;100379.66;;;27.13;37.35
71857;BME280;63344;46.980;28.882;2023-05-23T09:59:15;100390.22;;;27.16;37.25
71857;BME280;63344;46.980;28.882;2023-05-23T10:01:48;100392.25;;;27.31;38.75
71857;BME280;63344;46.980;28.882;2023-05-23T10:04:47;100388.06;;;26.71;39.67
71857;BME280;63344;46.980;28.882;2023-05-23T10:07:21;100398.69;;;26.23;40.24
71857;BME280;63344;46.980;28.882;2023-05-23T10:09:55;100399.91;;;25.43;39.10
71857;BME280;63344;46.980;28.882;2023-05-23T10:15:02;100409.41;;;23.68;nan
71857;BME280;63344;46.980;28.882;2023-05-23T10:22:42;100418.72;;;22.31;nan
71857;BME280;63344;46.980;28.882;2023-05-23T10:25:14;100419.50;;;22.02;nan
71857;BME280;63344;46.980;28.882;2023-05-23T10:27:42;100426.56;;;21.83;nan
71857;BME280;63344;46.980;28.882;2023-05-23T10:30:10;100425.38;;;21.76;nan
71857;BME280;63344;46.980;28.882;2023-05-23T10:32:39;100419.84;;;21.78;nan
71857;BME280;63344;46.980;28.882;2023-05-23T10:35:31;100423.41;;;21.78;nan
71857;BME280;63344;46.980;28.882;2023-05-23T10:38:40;100424.66;;;21.74;nan
71857;BME280;63344;46.980;28.882;2023-05-23T10:44:27;100439.81;;;21.56;nan
71857;BME280;63344;46.980;28.882;2023-05-23T10:47:02;100442.75;;;21.43;nan
71857;BME280;63344;46.980;28.882;2023-05-23T10:49:48;100454.47;;;21.32;nan
71857;BME280;63344;46.980;28.882;2023-05-23T10:54:59;100444.25;;;20.94;nan
71857;BME280;63344;46.980;28.882;2023-05-23T11:02:28;100443.78;;;20.67;nan
71857;BME280;63344;46.980;28.882;2023-05-23T11:05:27;100451.47;;;20.72;nan
71857;BME280;63344;46.980;28.882;2023-05-23T11:08:24;100450.78;;;20.59;nan
71857;BME280;63344;46.980;28.882;2023-05-23T11:11:10;100443.31;;;20.51;nan
71857;BME280;63344;46.980;28.882;2023-05-23T11:13:58;100446.88;;;20.52;nan
71857;BME280;63344;46.980;28.882;2023-05-23T11:16:40;100452.66;;;20.47;nan
71857;BME280;63344;46.980;28.882;2023-05-23T11:19:27;100459.41;;;20.41;nan
71857;BME280;63344;46.980;28.882;2023-05-23T11:22:00;100458.31;;;20.33;nan
71857;BME280;63344;46.980;28.882;2023-05-23T11:40:38;100454.69;;;19.66;nan
71857;BME280;63344;46.980;28.882;2023-05-23T11:43:23;100451.88;;;19.56;nan
71857;BME280;63344;46.980;28.882;2023-05-23T11:45:52;100439.00;;;19.48;nan
71857;BME280;63344;46.980;28.882;2023-05-23T11:48:23;100435.69;;;19.45;nan
71857;BME280;63344;46.980;28.882;2023-05-23T11:50:56;100441.22;;;19.43;nan
71857;BME280;63344;46.980;28.882;2023-05-23T11:53:52;100436.31;;;19.37;nan
71857;BME280;63344;46.980;28.882;2023-05-23T11:56:40;100438.03;;;19.38;nan
71857;BME280;63344;46.980;28.882;2023-05-23T11:59:35;100425.16;;;19.30;nan
71857;BME280;63344;46.980;28.882;2023-05-23T12:02:27;100419.16;;;19.27;nan
71857;BME280;63344;46.980;28.882;2023-05-23T12:05:27;100414.38;;;19.30;nan
71857;BME280;63344;46.980;28.882;2023-05-23T12:07:58;100406.16;;;19.21;nan
71857;BME280;63344;46.980;28.882;2023-05-23T12:10:27;100416.78;;;19.11;nan
71857;BME280;63344;46.980;28.882;2023-05-23T12:12:56;100411.16;;;19.03;nan
71857;BME280;63344;46.980;28.882;2023-05-23T12:15:25;100411.78;;;18.95;nan
71857;BME280;63344;46.980;28.882;2023-05-23T12:17:55;100406.72;;;18.90;nan
71857;BME280;63344;46.980;28.882;2023-05-23T12:20:25;100397.91;;;18.88;nan
71857;BME280;63344;46.980;28.882;2023-05-23T12:22:55;100400.50;;;18.90;nan
71857;BME280;63344;46.980;28.882;2023-05-23T12:25:23;100392.16;;;18.93;nan
71857;BME280;63344;46.980;28.882;2023-05-23T12:27:56;100386.19;;;19.01;nan
71857;BME280;63344;46.980;28.882;2023-05-23T12:30:39;100387.91;;;19.13;nan
71857;BME280;63344;46.980;28.882;2023-05-23T12:33:20;100378.50;;;19.19;nan
71857;BME280;63344;46.980;28.882;2023-05-23T12:35:53;100382.06;;;19.30;nan
71857;BME280;63344;46.980;28.882;2023-05-23T12:38:21;100381.34;;;19.40;nan
71857;BME280;63344;46.980;28.882;2023-05-23T12:41:07;100374.34;;;19.48;nan
71857;BME280;63344;46.980;28.882;2023-05-23T12:43:39;100371.16;;;19.55;nan
71857;BME280;63344;46.980;28.882;2023-05-23T12:46:07;100376.31;;;19.58;nan
71857;BME280;63344;46.980;28.882;2023-05-23T12:48:35;100373.34;;;19.61;nan
71857;BME280;63344;46.980;28.882;2023-05-23T12:51:13;100367.25;;;19.70;nan
71857;BME280;63344;46.980;28.882;2023-05-23T12:53:43;100363.09;;;19.77;nan
71857;BME280;63344;46.980;28.882;2023-05-23T12:56:11;100368.22;;;19.92;nan
71857;BME280;63344;46.980;28.882;2023-05-23T12:58:39;100370.00;;;20.02;nan
71857;BME280;63344;46.980;28.882;2023-05-23T13:01:10;100360.38;;;20.21;nan
71857;BME280;63344;46.980;28.882;2023-05-23T13:03:38;100360.31;;;20.43;nan
71857;BME280;63344;46.980;28.882;2023-05-23T13:06:05;100353.69;;;20.68;nan
71857;BME280;63344;46.980;28.882;2023-05-23T13:08:44;100355.28;;;20.92;nan
71857;BME280;63344;46.980;28.882;2023-05-23T13:11:21;100362.50;;;21.13;nan
71857;BME280;63344;46.980;28.882;2023-05-23T13:13:50;100349.50;;;21.27;nan
71857;BME280;63344;46.980;28.882;2023-05-23T13:16:36;100355.81;;;21.38;nan
71857;BME280;63344;46.980;28.882;2023-05-23T13:19:08;100354.16;;;21.46;nan
71857;BME280;63344;46.980;28.882;2023-05-23T13:21:37;100343.78;;;21.52;nan
71857;BME280;63344;46.980;28.882;2023-05-23T13:24:19;100356.22;;;21.64;nan
71857;BME280;63344;46.980;28.882;2023-05-23T13:26:48;100346.13;;;21.76;nan
71857;BME280;63344;46.980;28.882;2023-05-23T13:29:18;100346.88;;;21.87;nan
71857;BME280;63344;46.980;28.882;2023-05-23T13:36:47;100334.94;;;22.00;nan
71857;BME280;63344;46.980;28.882;2023-05-23T13:39:28;100328.53;;;22.01;nan
71857;BME280;63344;46.980;28.882;2023-05-23T13:41:55;100329.81;;;22.06;nan
71857;BME280;63344;46.980;28.882;2023-05-23T13:44:29;100333.38;;;22.07;nan
71857;BME280;63344;46.980;28.882;2023-05-23T13:47:11;100336.38;;;22.04;nan
71857;BME280;63344;46.980;28.882;2023-05-23T13:49:42;100335.22;;;21.97;nan
71857;BME280;63344;46.980;28.882;2023-05-23T13:52:14;100333.50;;;21.96;nan
71857;BME280;63344;46.980;28.882;2023-05-23T13:54:42;100338.22;;;21.94;nan
71857;BME280;63344;46.980;28.882;2023-05-23T13:57:10;100351.84;;;21.92;nan
71857;BME280;63344;46.980;28.882;2023-05-23T13:59:38;100351.16;;;21.90;nan
71857;BME280;63344;46.980;28.882;2023-05-23T14:02:05;100353.97;;;21.88;nan
71857;BME280;63344;46.980;28.882;2023-05-23T14:04:34;100351.44;;;21.87;nan
71857;BME280;63344;46.980;28.882;2023-05-23T14:07:03;100345.47;;;21.93;nan
71857;BME280;63344;46.980;28.882;2023-05-23T14:09:34;100354.31;;;22.05;nan
71857;BME280;63344;46.980;28.882;2023-05-23T14:12:03;100345.91;;;22.08;nan
71857;BME280;63344;46.980;28.882;2023-05-23T14:14:36;100350.34;;;22.09;nan
71857;BME280;63344;46.980;28.882;2023-05-23T14:17:03;100356.16;;;22.14;nan
71857;BME280;63344;46.980;28.882;2023-05-23T14:19:32;100349.63;;;22.17;nan